createdAt,value
2019-03-13T00:00:44.723Z,35.15
2019-03-13T00:01:54.336Z,39.70
2019-03-13T00:03:00.201Z,43.80
2019-03-13T00:04:06.112Z,39.27
2019-03-13T00:05:12.327Z,38.63
2019-03-13T00:06:18.381Z,40.20
2019-03-13T00:07:24.523Z,33.23
2019-03-13T00:08:34.956Z,39.95
2019-03-13T00:09:43.443Z,38.88
2019-03-13T00:10:49.256Z,37.10
2019-03-13T00:11:55.442Z,41.25
2019-03-13T00:13:01.720Z,34.90
2019-03-13T00:14:08.885Z,40.73
2019-03-13T00:15:14.835Z,36.98
2019-03-13T00:16:21.616Z,37.67
2019-03-13T00:17:28.403Z,37.50
2019-03-13T00:18:34.192Z,37.78
2019-03-13T00:19:39.837Z,40.23
2019-03-13T00:20:45.577Z,32.50
2019-03-13T00:21:52.668Z,32.73
2019-03-13T00:22:58.421Z,30.60
2019-03-13T00:24:04.090Z,35.05
2019-03-13T00:25:10.081Z,31.30
2019-03-13T00:26:15.931Z,36.15
2019-03-13T00:27:21.657Z,33.83
2019-03-13T00:28:28.454Z,33.73
2019-03-13T00:29:34.512Z,36.73
2019-03-13T00:30:40.592Z,37.15
2019-03-13T00:31:46.700Z,35.35
2019-03-13T00:32:52.507Z,40.60
2019-03-13T00:33:58.271Z,37.48
2019-03-13T00:35:06.651Z,36.60
2019-03-13T00:36:12.585Z,34.53
2019-03-13T00:37:18.960Z,36.48
2019-03-13T00:38:25.547Z,35.23
2019-03-13T00:39:33.908Z,33.88
2019-03-13T00:40:42.379Z,34.25
2019-03-13T00:41:50.347Z,36.20
2019-03-13T00:42:56.093Z,32.50
2019-03-13T00:44:03.124Z,33.83
2019-03-13T00:45:13.387Z,33.73
2019-03-13T00:46:19.505Z,39.98
2019-03-13T00:47:25.477Z,34.15
2019-03-13T00:48:31.847Z,37.10
2019-03-13T00:49:37.776Z,31.90
2019-03-13T00:50:43.668Z,33.78
2019-03-13T00:51:49.445Z,32.10
2019-03-13T00:52:55.119Z,35.40
2019-03-13T00:54:00.845Z,36.05
2019-03-13T00:55:07.432Z,33.75
2019-03-13T00:56:13.155Z,39.33
2019-03-13T00:57:19.912Z,33.38
2019-03-13T00:58:25.645Z,36.35
2019-03-13T00:59:31.384Z,33.35
2019-03-13T01:00:52.406Z,32.65
2019-03-13T01:02:10.836Z,35.38
2019-03-13T01:03:24.688Z,31.12
2019-03-13T01:04:32.154Z,35.75
2019-03-13T01:05:39.751Z,35.52
2019-03-13T01:06:49.901Z,36.58
2019-03-13T01:07:56.656Z,34.85
2019-03-13T01:09:02.821Z,31.70
2019-03-13T01:10:11.246Z,39.80
2019-03-13T01:11:17.696Z,41.65
2019-03-13T01:12:24.051Z,36.60
2019-03-13T01:13:30.059Z,34.27
2019-03-13T01:14:36.118Z,37.75
2019-03-13T01:15:42.237Z,37.35
2019-03-13T01:16:48.005Z,36.20
2019-03-13T01:17:54.129Z,40.20
2019-03-13T01:19:00.006Z,31.65
2019-03-13T01:20:07.361Z,37.85
2019-03-13T01:21:13.128Z,37.93
2019-03-13T01:22:18.822Z,32.45
2019-03-13T01:23:24.457Z,37.15
2019-03-13T01:24:30.348Z,34.38
2019-03-13T01:25:35.995Z,32.80
2019-03-13T01:26:41.715Z,33.18
2019-03-13T01:27:47.429Z,35.73
2019-03-13T01:28:53.204Z,37.33
2019-03-13T01:29:59.049Z,33.10
2019-03-13T01:31:18.204Z,35.55
2019-03-13T01:32:24.050Z,31.75
2019-03-13T01:33:30.539Z,31.77
2019-03-13T01:34:41.647Z,30.02
2019-03-13T01:35:52.256Z,30.27
2019-03-13T01:36:58.423Z,29.98
2019-03-13T01:38:04.878Z,30.97
2019-03-13T01:39:10.956Z,31.62
2019-03-13T01:40:17.126Z,36.40
2019-03-13T01:41:24.128Z,35.23
2019-03-13T01:42:29.960Z,34.35
2019-03-13T01:43:35.938Z,36.13
2019-03-13T01:44:42.244Z,33.28
2019-03-13T01:45:48.387Z,32.85
2019-03-13T01:46:54.488Z,36.83
2019-03-13T01:48:01.780Z,33.05
2019-03-13T01:49:07.468Z,30.52
2019-03-13T01:50:13.942Z,35.13
2019-03-13T01:51:19.661Z,25.17
2019-03-13T01:52:25.468Z,28.25
2019-03-13T01:53:31.102Z,28.12
2019-03-13T01:54:39.219Z,28.40
2019-03-13T01:55:44.978Z,32.78
2019-03-13T01:56:50.947Z,28.15
2019-03-13T01:57:56.660Z,27.90
2019-03-13T01:59:02.390Z,29.50
2019-03-13T02:00:14.655Z,29.75
2019-03-13T02:01:20.533Z,29.15
2019-03-13T02:02:26.527Z,28.30
2019-03-13T02:03:33.068Z,30.75
2019-03-13T02:04:39.395Z,29.37
2019-03-13T02:05:46.900Z,30.37
2019-03-13T02:06:53.257Z,31.80
2019-03-13T02:07:59.668Z,27.67
2019-03-13T02:09:06.376Z,29.92
2019-03-13T02:10:13.643Z,34.43
2019-03-13T02:11:20.215Z,31.90
2019-03-13T02:12:26.124Z,28.70
2019-03-13T02:13:31.963Z,34.40
2019-03-13T02:14:40.187Z,27.48
2019-03-13T02:15:46.729Z,28.23
2019-03-13T02:16:53.005Z,28.65
2019-03-13T02:18:00.060Z,22.13
2019-03-13T02:19:06.311Z,26.40
2019-03-13T02:20:12.266Z,28.57
2019-03-13T02:21:17.995Z,25.00
2019-03-13T02:22:24.791Z,24.98
2019-03-13T02:23:30.720Z,29.87
2019-03-13T02:24:36.450Z,25.02
2019-03-13T02:25:42.392Z,25.00
2019-03-13T02:26:48.051Z,25.82
2019-03-13T02:27:53.790Z,26.93
2019-03-13T02:28:59.528Z,30.35
2019-03-13T02:30:18.228Z,33.42
2019-03-13T02:31:24.202Z,27.30
2019-03-13T02:32:30.541Z,28.80
2019-03-13T02:33:36.455Z,29.12
2019-03-13T02:34:43.421Z,30.10
2019-03-13T02:35:49.511Z,28.30
2019-03-13T02:36:56.282Z,28.55
2019-03-13T02:38:02.022Z,29.00
2019-03-13T02:39:07.810Z,28.83
2019-03-13T02:40:16.056Z,27.15
2019-03-13T02:41:22.033Z,28.50
2019-03-13T02:42:28.886Z,30.72
2019-03-13T02:43:34.938Z,30.75
2019-03-13T02:44:41.947Z,27.10
2019-03-13T02:45:48.465Z,25.80
2019-03-13T02:46:54.375Z,30.37
2019-03-13T02:48:01.043Z,27.20
2019-03-13T02:49:07.542Z,29.57
2019-03-13T02:50:18.093Z,26.05
2019-03-13T02:51:23.865Z,24.72
2019-03-13T02:52:30.900Z,30.88
2019-03-13T02:53:36.638Z,26.75
2019-03-13T02:54:42.442Z,25.65
2019-03-13T02:55:48.098Z,23.75
2019-03-13T02:56:53.762Z,25.70
2019-03-13T02:57:59.590Z,22.13
2019-03-13T02:59:05.331Z,26.77
2019-03-13T03:00:18.628Z,24.60
2019-03-13T03:01:26.423Z,24.37
2019-03-13T03:02:33.932Z,24.05
2019-03-13T03:03:41.933Z,22.62
2019-03-13T03:04:47.878Z,22.45
2019-03-13T03:05:53.633Z,23.02
2019-03-13T03:07:00.361Z,23.85
2019-03-13T03:08:06.806Z,26.50
2019-03-13T03:09:13.234Z,22.98
2019-03-13T03:10:20.310Z,19.85
2019-03-13T03:11:26.750Z,22.70
2019-03-13T03:12:32.577Z,21.75
2019-03-13T03:13:38.672Z,20.48
2019-03-13T03:15:00.572Z,26.33
2019-03-13T03:16:07.359Z,20.52
2019-03-13T03:17:14.162Z,24.80
2019-03-13T03:18:20.201Z,21.17
2019-03-13T03:19:26.991Z,23.05
2019-03-13T03:20:32.908Z,23.62
2019-03-13T03:21:38.673Z,21.50
2019-03-13T03:22:44.356Z,21.12
2019-03-13T03:23:51.161Z,21.30
2019-03-13T03:24:56.882Z,18.25
2019-03-13T03:26:02.650Z,20.77
2019-03-13T03:27:08.390Z,23.87
2019-03-13T03:28:14.094Z,22.60
2019-03-13T03:29:19.872Z,22.77
2019-03-13T03:30:25.831Z,22.67
2019-03-13T03:31:31.817Z,19.30
2019-03-13T03:32:38.071Z,20.95
2019-03-13T03:33:45.728Z,18.73
2019-03-13T03:34:52.358Z,20.27
2019-03-13T03:35:58.552Z,20.72
2019-03-13T03:37:04.695Z,23.92
2019-03-13T03:38:10.698Z,20.48
2019-03-13T03:39:16.835Z,23.02
2019-03-13T03:40:23.869Z,25.60
2019-03-13T03:41:30.002Z,22.55
2019-03-13T03:42:36.325Z,20.97
2019-03-13T03:43:43.082Z,24.87
2019-03-13T03:44:49.507Z,18.32
2019-03-13T03:45:55.412Z,20.75
2019-03-13T03:47:02.144Z,21.15
2019-03-13T03:48:09.948Z,18.98
2019-03-13T03:49:15.996Z,21.90
2019-03-13T03:50:21.754Z,24.07
2019-03-13T03:51:27.483Z,22.32
2019-03-13T03:52:33.232Z,20.75
2019-03-13T03:53:38.981Z,19.57
2019-03-13T03:54:44.729Z,19.60
2019-03-13T03:55:50.433Z,18.00
2019-03-13T03:56:56.184Z,22.22
2019-03-13T03:58:01.957Z,16.87
2019-03-13T03:59:08.813Z,19.35
2019-03-13T04:00:19.556Z,18.82
2019-03-13T04:01:25.520Z,20.17
2019-03-13T04:02:32.507Z,21.97
2019-03-13T04:03:39.004Z,22.87
2019-03-13T04:04:45.290Z,19.07
2019-03-13T04:05:51.955Z,23.38
2019-03-13T04:06:58.392Z,22.35
2019-03-13T04:08:04.503Z,20.97
2019-03-13T04:09:11.843Z,21.52
2019-03-13T04:10:19.044Z,21.57
2019-03-13T04:11:24.865Z,20.23
2019-03-13T04:12:30.878Z,20.75
2019-03-13T04:13:37.693Z,23.40
2019-03-13T04:14:44.232Z,20.65
2019-03-13T04:15:51.193Z,25.65
2019-03-13T04:16:57.134Z,18.35
2019-03-13T04:18:02.959Z,18.35
2019-03-13T04:19:09.776Z,18.27
2019-03-13T04:20:19.104Z,18.23
2019-03-13T04:21:25.854Z,19.45
2019-03-13T04:22:31.695Z,22.07
2019-03-13T04:23:37.438Z,19.95
2019-03-13T04:24:44.188Z,20.15
2019-03-13T04:25:49.925Z,20.90
2019-03-13T04:26:55.677Z,21.60
2019-03-13T04:28:01.425Z,18.80
2019-03-13T04:29:08.487Z,19.98
2019-03-13T04:30:14.473Z,21.12
2019-03-13T04:31:20.785Z,21.27
2019-03-13T04:32:26.906Z,18.57
2019-03-13T04:33:34.715Z,18.77
2019-03-13T04:34:41.722Z,17.55
2019-03-13T04:35:48.175Z,16.15
2019-03-13T04:36:54.490Z,16.73
2019-03-13T04:38:00.765Z,19.27
2019-03-13T04:39:07.462Z,19.25
2019-03-13T04:40:15.587Z,19.27
2019-03-13T04:41:22.199Z,21.52
2019-03-13T04:42:28.032Z,18.75
2019-03-13T04:43:34.283Z,17.55
2019-03-13T04:44:40.485Z,18.23
2019-03-13T04:45:46.870Z,16.65
2019-03-13T04:46:53.853Z,18.62
2019-03-13T04:48:00.531Z,17.95
2019-03-13T04:49:06.801Z,15.43
2019-03-13T04:50:16.404Z,18.32
2019-03-13T04:51:22.427Z,17.35
2019-03-13T04:52:28.077Z,21.27
2019-03-13T04:53:33.774Z,16.48
2019-03-13T04:54:39.497Z,18.07
2019-03-13T04:55:45.385Z,17.37
2019-03-13T04:56:51.304Z,16.12
2019-03-13T04:57:57.132Z,20.97
2019-03-13T04:59:04.722Z,17.98
2019-03-13T05:00:17.199Z,19.40
2019-03-13T05:01:26.096Z,18.42
2019-03-13T05:02:30.372Z,26.45
2019-03-13T05:03:55.463Z,17.27
2019-03-13T05:05:01.246Z,18.40
2019-03-13T05:06:12.285Z,14.53
2019-03-13T05:07:18.785Z,17.67
2019-03-13T05:08:44.220Z,17.17
2019-03-13T05:09:41.077Z,15.95
2019-03-13T05:10:47.704Z,18.10
2019-03-13T05:11:54.503Z,16.55
2019-03-13T05:13:01.049Z,15.88
2019-03-13T05:14:07.223Z,16.52
2019-03-13T05:15:13.838Z,17.70
2019-03-13T05:16:20.394Z,15.20
2019-03-13T05:17:26.722Z,19.02
2019-03-13T05:18:33.385Z,18.37
2019-03-13T05:19:40.005Z,18.20
2019-03-13T05:20:46.445Z,17.87
2019-03-13T05:21:52.263Z,12.47
2019-03-13T05:22:58.075Z,25.95
2019-03-13T05:24:05.003Z,18.23
2019-03-13T05:25:10.715Z,19.02
2019-03-13T05:26:18.195Z,22.22
2019-03-13T05:27:24.209Z,14.38
2019-03-13T05:28:30.085Z,13.98
2019-03-13T05:29:36.976Z,16.30
2019-03-13T05:30:43.027Z,19.65
2019-03-13T05:31:48.952Z,19.70
2019-03-13T05:32:55.858Z,15.65
2019-03-13T05:34:01.812Z,19.35
2019-03-13T05:35:08.231Z,21.73
2019-03-13T05:36:17.016Z,17.20
2019-03-13T05:37:23.209Z,19.12
2019-03-13T05:38:30.989Z,15.30
2019-03-13T05:39:39.469Z,18.87
2019-03-13T05:40:45.649Z,19.17
2019-03-13T05:41:52.530Z,20.00
2019-03-13T05:42:59.259Z,17.95
2019-03-13T05:44:05.696Z,16.37
2019-03-13T05:45:12.169Z,17.87
2019-03-13T05:46:18.759Z,19.92
2019-03-13T05:47:42.489Z,20.95
2019-03-13T05:48:48.899Z,17.45
2019-03-13T05:49:54.827Z,16.73
2019-03-13T05:51:01.740Z,16.87
2019-03-13T05:52:07.829Z,17.82
2019-03-13T05:53:13.768Z,15.78
2019-03-13T05:54:19.826Z,16.50
2019-03-13T05:55:25.929Z,17.85
2019-03-13T05:56:31.719Z,17.80
2019-03-13T05:57:37.942Z,15.50
2019-03-13T05:58:44.319Z,17.57
2019-03-13T05:59:50.379Z,14.03
2019-03-13T06:00:56.989Z,16.65
2019-03-13T06:02:03.869Z,16.10
2019-03-13T06:03:09.649Z,19.92
2019-03-13T06:04:15.589Z,18.48
2019-03-13T06:05:21.600Z,15.58
2019-03-13T06:06:27.850Z,19.12
2019-03-13T06:07:35.036Z,20.35
2019-03-13T06:08:40.799Z,19.98
2019-03-13T06:09:50.758Z,17.80
2019-03-13T06:10:57.581Z,14.53
2019-03-13T06:12:03.540Z,13.53
2019-03-13T06:13:09.776Z,16.40
2019-03-13T06:14:16.346Z,14.83
2019-03-13T06:15:22.509Z,22.07
2019-03-13T06:16:30.427Z,17.82
2019-03-13T06:17:37.867Z,16.90
2019-03-13T06:18:43.841Z,25.23
2019-03-13T06:19:50.553Z,20.65
2019-03-13T06:20:59.780Z,13.75
2019-03-13T06:22:05.668Z,17.80
2019-03-13T06:23:11.749Z,20.88
2019-03-13T06:24:17.870Z,23.02
2019-03-13T06:25:23.718Z,18.15
2019-03-13T06:26:29.470Z,19.00
2019-03-13T06:27:35.900Z,16.52
2019-03-13T06:28:43.699Z,23.02
2019-03-13T06:29:49.553Z,22.17
2019-03-13T06:30:56.641Z,25.50
2019-03-13T06:32:02.671Z,23.80
2019-03-13T06:33:08.920Z,30.05
2019-03-13T06:34:14.722Z,25.23
2019-03-13T06:35:23.590Z,19.50
2019-03-13T06:36:29.063Z,21.23
2019-03-13T06:37:35.096Z,23.47
2019-03-13T06:38:43.300Z,19.07
2019-03-13T06:39:50.799Z,23.27
2019-03-13T06:40:59.127Z,23.42
2019-03-13T06:42:06.991Z,16.80
2019-03-13T06:43:12.948Z,21.12
2019-03-13T06:44:19.867Z,25.02
2019-03-13T06:45:26.361Z,25.05
2019-03-13T06:46:33.348Z,17.65
2019-03-13T06:47:39.840Z,21.25
2019-03-13T06:48:45.944Z,15.25
2019-03-13T06:49:52.038Z,25.23
2019-03-13T06:50:58.661Z,21.23
2019-03-13T06:52:04.700Z,22.42
2019-03-13T06:53:10.678Z,22.32
2019-03-13T06:54:16.741Z,24.40
2019-03-13T06:55:23.022Z,29.80
2019-03-13T06:56:29.891Z,23.65
2019-03-13T06:57:35.991Z,20.68
2019-03-13T06:58:46.438Z,20.82
2019-03-13T07:00:03.463Z,15.35
2019-03-13T07:01:11.190Z,18.50
2019-03-13T07:02:23.672Z,14.50
2019-03-13T07:03:49.326Z,19.12
2019-03-13T07:05:00.390Z,17.02
2019-03-13T07:06:24.817Z,16.30
2019-03-13T07:07:48.771Z,16.20
2019-03-13T07:08:56.968Z,20.35
2019-03-13T07:10:08.022Z,17.07
2019-03-13T07:11:26.061Z,12.55
2019-03-13T07:12:50.300Z,17.77
2019-03-13T07:13:58.222Z,14.00
2019-03-13T07:15:13.620Z,21.52
2019-03-13T07:16:32.191Z,29.20
2019-03-13T07:17:39.898Z,27.42
2019-03-13T07:18:57.557Z,28.02
2019-03-13T07:20:14.966Z,22.10
2019-03-13T07:21:23.725Z,27.45
2019-03-13T07:22:37.451Z,25.30
2019-03-13T07:23:46.902Z,20.43
2019-03-13T07:25:09.634Z,23.02
2019-03-13T07:26:24.521Z,22.65
2019-03-13T07:27:45.599Z,20.60
2019-03-13T07:29:11.985Z,23.83
2019-03-13T07:30:16.569Z,22.67
2019-03-13T07:31:26.688Z,20.70
2019-03-13T07:32:34.011Z,29.37
2019-03-13T07:33:44.462Z,21.23
2019-03-13T07:34:56.823Z,14.55
2019-03-13T07:36:06.442Z,15.35
2019-03-13T07:37:17.022Z,20.27
2019-03-13T07:38:31.673Z,19.40
2019-03-13T07:39:44.982Z,17.67
2019-03-13T07:40:55.770Z,22.32
2019-03-13T07:42:14.543Z,24.18
2019-03-13T07:43:31.200Z,30.23
2019-03-13T07:46:09.042Z,15.08
2019-03-13T07:47:32.810Z,20.08
2019-03-13T07:48:49.360Z,18.32
2019-03-13T07:50:10.496Z,16.87
2019-03-13T07:51:22.212Z,21.55
2019-03-13T07:52:33.102Z,23.15
2019-03-13T07:53:56.891Z,18.48
2019-03-13T07:55:05.798Z,19.35
2019-03-13T07:56:13.418Z,25.17
2019-03-13T07:57:24.857Z,21.50
2019-03-13T07:58:39.680Z,22.48
2019-03-13T07:59:53.194Z,15.80
2019-03-13T08:01:03.349Z,20.82
2019-03-13T08:02:12.444Z,20.37
2019-03-13T08:03:27.436Z,17.57
2019-03-13T08:04:51.844Z,18.37
2019-03-13T08:06:06.679Z,20.85
2019-03-13T08:07:26.219Z,19.27
2019-03-13T08:08:34.839Z,22.05
2019-03-13T08:09:40.772Z,18.30
2019-03-13T08:10:51.380Z,20.68
2019-03-13T08:12:00.056Z,16.20
2019-03-13T08:13:27.358Z,14.25
2019-03-13T08:14:43.645Z,13.78
2019-03-13T08:15:51.041Z,15.28
2019-03-13T08:17:18.402Z,16.65
2019-03-13T08:18:41.161Z,14.90
2019-03-13T08:19:50.104Z,18.27
2019-03-13T08:21:10.432Z,25.35
2019-03-13T08:22:33.900Z,16.50
2019-03-13T08:23:44.440Z,19.30
2019-03-13T08:25:08.294Z,14.03
2019-03-13T08:26:22.353Z,13.50
2019-03-13T08:27:36.992Z,14.15
2019-03-13T08:28:47.350Z,22.27
2019-03-13T08:29:54.520Z,19.00
2019-03-13T08:31:03.546Z,16.10
2019-03-13T08:32:28.963Z,18.15
2019-03-13T08:33:54.443Z,18.30
2019-03-13T08:35:10.843Z,12.90
2019-03-13T08:36:35.013Z,15.15
2019-03-13T08:37:42.060Z,10.38
2019-03-13T08:38:52.073Z,10.45
2019-03-13T08:40:16.299Z,18.95
2019-03-13T08:41:36.431Z,20.80
2019-03-13T08:42:44.103Z,11.30
2019-03-13T08:43:57.771Z,12.50
2019-03-13T08:45:06.743Z,13.40
2019-03-13T08:46:20.381Z,45.63
2019-03-13T08:47:44.617Z,39.67
2019-03-13T08:49:06.324Z,40.65
2019-03-13T08:50:30.133Z,32.63
2019-03-13T08:51:47.663Z,20.62
2019-03-13T08:53:11.973Z,15.00
2019-03-13T08:54:37.600Z,14.80
2019-03-13T08:55:54.048Z,15.28
2019-03-13T08:57:14.021Z,16.55
2019-03-13T08:58:33.403Z,12.40
2019-03-13T08:59:40.801Z,13.15
2019-03-13T09:00:47.316Z,15.05
2019-03-13T09:01:58.844Z,20.05
2019-03-13T09:03:09.194Z,15.03
2019-03-13T09:04:25.854Z,12.03
2019-03-13T09:05:49.631Z,13.00
2019-03-13T09:07:00.113Z,13.68
2019-03-13T09:08:06.524Z,13.90
2019-03-13T09:09:12.821Z,14.98
2019-03-13T09:10:36.240Z,13.70
2019-03-13T09:13:46.245Z,12.00
2019-03-13T09:14:54.190Z,15.32
2019-03-13T09:16:07.838Z,13.45
2019-03-13T09:17:19.228Z,11.33
2019-03-13T09:18:47.566Z,11.15
2019-03-13T09:19:53.963Z,10.05
2019-03-13T09:21:08.609Z,13.22
2019-03-13T09:22:17.483Z,11.25
2019-03-13T09:23:41.318Z,9.87
2019-03-13T09:24:49.477Z,12.77
2019-03-13T09:25:56.450Z,10.50
2019-03-13T09:27:08.270Z,12.37
2019-03-13T09:28:32.329Z,11.67
2019-03-13T09:29:38.277Z,12.07
2019-03-13T09:30:53.888Z,9.73
2019-03-13T09:32:17.024Z,8.68
2019-03-13T09:33:31.540Z,11.83
2019-03-13T09:34:45.556Z,11.23
2019-03-13T09:35:54.530Z,9.08
2019-03-13T09:37:00.551Z,9.47
2019-03-13T09:38:08.220Z,8.27
2019-03-13T09:39:18.939Z,8.60
2019-03-13T09:40:31.143Z,9.90
2019-03-13T09:41:39.426Z,10.23
2019-03-13T09:42:47.498Z,7.50
2019-03-13T09:44:14.159Z,6.33
2019-03-13T09:45:27.895Z,9.40
2019-03-13T09:46:41.822Z,14.60
2019-03-13T09:48:06.872Z,15.00
2019-03-13T09:49:24.277Z,11.27
2019-03-13T09:50:37.598Z,14.03
2019-03-13T09:51:45.389Z,9.03
2019-03-13T09:52:55.503Z,10.27
2019-03-13T09:54:09.019Z,7.90
2019-03-13T09:55:33.386Z,10.40
2019-03-13T09:56:47.866Z,9.10
2019-03-13T09:57:58.936Z,9.13
2019-03-13T09:59:23.845Z,8.03
2019-03-13T10:00:48.090Z,14.93
2019-03-13T10:02:20.995Z,9.77
2019-03-13T10:04:14.655Z,9.57
2019-03-13T10:05:43.435Z,8.07
2019-03-13T10:09:08.353Z,10.50
2019-03-13T10:10:36.898Z,11.13
2019-03-13T10:12:05.172Z,10.10
2019-03-13T10:13:22.633Z,8.63
2019-03-13T10:14:40.634Z,9.27
2019-03-13T10:15:52.424Z,6.97
2019-03-13T10:17:17.234Z,6.57
2019-03-13T10:18:35.137Z,7.17
2019-03-13T10:19:53.870Z,7.17
2019-03-13T10:22:54.317Z,8.10
2019-03-13T10:24:30.619Z,7.63
2019-03-13T10:26:09.575Z,6.13
2019-03-13T10:27:28.851Z,6.43
2019-03-13T10:28:57.090Z,7.20
2019-03-13T10:30:30.059Z,6.63
2019-03-13T10:31:46.997Z,8.17
2019-03-13T10:33:07.945Z,6.33
2019-03-13T10:34:28.155Z,8.00
2019-03-13T10:37:56.987Z,9.47
2019-03-13T10:39:26.117Z,8.80
2019-03-13T10:40:48.057Z,6.30
2019-03-13T10:42:27.548Z,5.97
2019-03-13T10:43:54.752Z,8.67
2019-03-13T10:45:24.580Z,4.83
2019-03-13T10:47:00.877Z,8.00
2019-03-13T10:48:24.039Z,5.90
2019-03-13T10:49:47.810Z,7.00
2019-03-13T10:51:17.951Z,6.03
2019-03-13T10:52:36.451Z,5.83
2019-03-13T10:54:00.074Z,8.90
2019-03-13T10:55:24.039Z,6.47
2019-03-13T10:56:39.212Z,4.80
2019-03-13T10:57:53.504Z,5.40
2019-03-13T10:59:04.378Z,5.93
2019-03-13T11:00:29.186Z,8.00
2019-03-13T11:01:56.191Z,7.67
2019-03-13T11:03:11.871Z,9.63
2019-03-13T11:04:37.280Z,11.20
2019-03-13T11:05:52.351Z,7.47
2019-03-13T11:07:08.607Z,5.37
2019-03-13T11:10:21.095Z,9.17
2019-03-13T11:11:46.791Z,8.73
2019-03-13T11:12:58.790Z,11.13
2019-03-13T11:14:16.203Z,7.47
2019-03-13T11:15:25.151Z,10.40
2019-03-13T11:16:34.862Z,6.03
2019-03-13T11:18:00.981Z,5.57
2019-03-13T11:19:16.586Z,8.13
2019-03-13T11:20:40.858Z,11.13
2019-03-13T11:21:56.525Z,8.23
2019-03-13T11:23:10.302Z,10.63
2019-03-13T11:24:22.720Z,9.47
2019-03-13T11:25:36.857Z,6.57
2019-03-13T11:26:49.259Z,9.63
2019-03-13T11:28:01.352Z,9.93
2019-03-13T11:29:19.900Z,12.80
2019-03-13T11:30:28.835Z,19.23
2019-03-13T11:31:52.897Z,15.40
2019-03-13T11:33:16.462Z,10.77
2019-03-13T11:34:38.550Z,12.70
2019-03-13T11:38:11.109Z,11.50
2019-03-13T11:38:18.144Z,10.13
2019-03-13T11:39:35.404Z,8.30
2019-03-13T11:41:05.116Z,20.27
2019-03-13T11:42:57.093Z,24.13
2019-03-13T11:46:05.691Z,17.03
2019-03-13T11:47:24.071Z,25.60
2019-03-13T11:48:51.531Z,34.43
2019-03-13T11:50:20.532Z,74.33
2019-03-13T11:51:31.976Z,63.93
2019-03-13T11:52:50.784Z,83.30
2019-03-13T11:54:19.166Z,60.97
2019-03-13T11:55:49.610Z,33.90
2019-03-13T11:57:02.432Z,11.83
2019-03-13T11:58:23.661Z,15.33
2019-03-13T11:59:39.415Z,9.93
2019-03-13T12:00:51.192Z,10.03
2019-03-13T12:02:17.358Z,9.30
2019-03-13T12:03:47.899Z,10.37
2019-03-13T12:05:01.722Z,10.77
2019-03-13T12:06:16.485Z,14.57
2019-03-13T12:07:52.883Z,17.17
2019-03-13T12:09:12.964Z,11.67
2019-03-13T12:10:48.718Z,10.83
2019-03-13T12:12:12.557Z,18.47
2019-03-13T12:13:48.076Z,20.13
2019-03-13T12:15:12.991Z,10.13
2019-03-13T12:16:44.321Z,27.23
2019-03-13T12:20:00.642Z,14.00
2019-03-13T12:21:18.748Z,18.30
2019-03-13T12:22:43.674Z,10.93
2019-03-13T12:24:02.923Z,28.07
2019-03-13T12:25:17.930Z,23.47
2019-03-13T12:26:41.525Z,20.47
2019-03-13T12:28:22.828Z,19.13
2019-03-13T12:29:40.719Z,13.13
2019-03-13T12:30:57.931Z,7.13
2019-03-13T12:32:23.475Z,7.03
2019-03-13T12:35:19.053Z,8.93
2019-03-13T12:36:36.847Z,5.83
2019-03-13T12:37:49.581Z,11.30
2019-03-13T12:39:22.832Z,7.67
2019-03-13T12:40:43.715Z,15.80
2019-03-13T12:42:15.800Z,24.00
2019-03-13T12:43:53.200Z,12.17
2019-03-13T12:45:18.428Z,11.47
2019-03-13T12:46:36.864Z,17.97
2019-03-13T12:48:01.061Z,9.73
2019-03-13T12:49:34.550Z,12.17
2019-03-13T12:50:49.194Z,8.47
2019-03-13T12:52:25.587Z,8.30
2019-03-13T12:53:42.214Z,9.07
2019-03-13T12:55:06.443Z,7.80
2019-03-13T12:56:19.277Z,8.10
2019-03-13T12:57:38.794Z,9.23
2019-03-13T12:59:02.260Z,7.80
2019-03-13T13:00:17.992Z,8.67
2019-03-13T13:01:30.161Z,10.63
2019-03-13T13:02:56.835Z,7.93
2019-03-13T13:04:12.965Z,5.37
2019-03-13T13:05:24.128Z,6.80
2019-03-13T13:06:32.350Z,6.33
2019-03-13T13:07:43.686Z,6.93
2019-03-13T13:08:51.249Z,11.97
2019-03-13T13:09:57.682Z,9.33
2019-03-13T13:11:10.143Z,6.53
2019-03-13T13:12:22.618Z,7.60
2019-03-13T13:13:45.658Z,8.07
2019-03-13T13:14:53.312Z,9.97
2019-03-13T13:16:17.198Z,6.27
2019-03-13T13:17:30.582Z,10.80
2019-03-13T13:18:36.064Z,8.40
2019-03-13T13:19:42.312Z,5.80
2019-03-13T13:20:48.725Z,6.03
2019-03-13T13:21:55.100Z,8.70
2019-03-13T13:23:01.827Z,6.63
2019-03-13T13:24:09.781Z,3.83
2019-03-13T13:25:15.662Z,5.53
2019-03-13T13:26:21.449Z,6.63
2019-03-13T13:27:27.307Z,8.03
2019-03-13T13:28:33.463Z,6.70
2019-03-13T13:29:39.175Z,5.90
2019-03-13T13:30:44.965Z,8.83
2019-03-13T13:31:50.693Z,7.47
2019-03-13T13:32:56.484Z,5.47
2019-03-13T13:34:02.269Z,5.93
2019-03-13T13:35:10.604Z,6.50
2019-03-13T13:36:16.361Z,6.77
2019-03-13T13:37:24.832Z,7.20
2019-03-13T13:38:30.691Z,9.77
2019-03-13T13:39:36.827Z,11.37
2019-03-13T13:40:42.753Z,7.93
2019-03-13T13:41:48.630Z,8.60
2019-03-13T13:42:54.420Z,12.87
2019-03-13T13:44:01.161Z,10.40
2019-03-13T13:45:33.115Z,7.87
2019-03-13T13:46:38.833Z,6.93
2019-03-13T13:47:44.533Z,7.00
2019-03-13T13:48:51.094Z,6.97
2019-03-13T13:49:59.856Z,8.40
2019-03-13T13:51:04.541Z,7.10
2019-03-13T13:52:10.501Z,10.13
2019-03-13T13:53:17.301Z,11.13
2019-03-13T13:54:23.108Z,8.70
2019-03-13T13:55:29.004Z,7.43
2019-03-13T13:56:35.259Z,7.90
2019-03-13T13:57:41.061Z,6.63
2019-03-13T13:58:46.905Z,6.47
2019-03-13T13:59:52.679Z,6.43
2019-03-13T14:01:05.644Z,8.27
2019-03-13T14:02:11.780Z,6.00
2019-03-13T14:03:25.970Z,6.33
2019-03-13T14:04:31.927Z,5.97
2019-03-13T14:05:40.731Z,6.23
2019-03-13T14:06:45.239Z,7.73
2019-03-13T14:07:51.416Z,7.33
2019-03-13T14:08:57.122Z,7.97
2019-03-13T14:10:03.718Z,9.47
2019-03-13T14:11:10.857Z,8.70
2019-03-13T14:12:19.948Z,12.20
2019-03-13T14:13:24.952Z,4.17
2019-03-13T14:14:30.860Z,8.47
2019-03-13T14:15:36.781Z,7.20
2019-03-13T14:16:42.863Z,7.83
2019-03-13T14:17:48.708Z,6.40
2019-03-13T14:18:55.392Z,8.90
2019-03-13T14:20:01.453Z,6.13
2019-03-13T14:21:07.419Z,8.13
2019-03-13T14:23:04.065Z,7.27
2019-03-13T14:24:10.432Z,5.73
2019-03-13T14:25:16.482Z,6.80
2019-03-13T14:26:23.095Z,6.90
2019-03-13T14:27:29.571Z,5.60
2019-03-13T14:28:35.593Z,5.43
2019-03-13T14:29:41.936Z,7.77
2019-03-13T14:30:47.739Z,5.97
2019-03-13T14:31:54.411Z,7.80
2019-03-13T14:33:00.593Z,6.30
2019-03-13T14:34:06.892Z,6.60
2019-03-13T14:35:13.700Z,4.90
2019-03-13T14:36:21.789Z,7.87
2019-03-13T14:37:31.371Z,6.27
2019-03-13T14:38:39.282Z,12.10
2019-03-13T14:39:49.139Z,6.87
2019-03-13T14:40:57.962Z,10.13
2019-03-13T14:42:05.804Z,17.90
2019-03-13T14:43:13.717Z,12.90
2019-03-13T14:44:24.865Z,10.13
2019-03-13T14:45:30.787Z,8.17
2019-03-13T14:46:46.698Z,10.90
2019-03-13T14:47:59.303Z,9.90
2019-03-13T14:49:11.921Z,11.23
2019-03-13T14:50:22.879Z,5.93
2019-03-13T14:51:34.417Z,10.73
2019-03-13T14:52:57.580Z,7.10
2019-03-13T14:54:04.932Z,7.73
2019-03-13T14:55:14.103Z,10.50
2019-03-13T14:56:20.050Z,6.70
2019-03-13T14:57:29.434Z,10.83
2019-03-13T14:58:39.560Z,10.70
2019-03-13T14:59:48.191Z,9.63
2019-03-13T15:00:55.584Z,8.43
2019-03-13T15:02:05.685Z,10.60
2019-03-13T15:03:13.241Z,9.30
2019-03-13T15:04:19.852Z,8.67
2019-03-13T15:54:21.123Z,7.93
2019-03-13T15:55:28.569Z,10.35
2019-03-13T15:56:36.962Z,8.33
2019-03-13T15:57:43.359Z,8.58
2019-03-13T15:58:51.139Z,10.05
2019-03-13T15:59:57.949Z,12.98
2019-03-13T16:01:05.143Z,6.08
2019-03-13T16:02:12.431Z,6.45
2019-03-13T16:03:20.444Z,10.23
2019-03-13T16:04:27.991Z,9.63
2019-03-13T16:05:35.572Z,10.68
2019-03-13T16:06:43.125Z,16.80
2019-03-13T16:07:51.082Z,14.58
2019-03-13T16:09:00.307Z,10.97
2019-03-13T16:10:13.205Z,11.77
2019-03-13T16:11:21.312Z,13.10
2019-03-13T16:12:29.277Z,11.03
2019-03-13T16:13:37.708Z,11.47
2019-03-13T16:14:46.090Z,9.37
2019-03-13T16:15:54.297Z,14.10
2019-03-13T16:17:01.276Z,11.80
2019-03-13T16:18:09.534Z,16.37
2019-03-13T16:19:16.965Z,13.57
2019-03-13T16:20:25.756Z,14.63
2019-03-13T16:21:44.873Z,12.63
2019-03-13T16:23:03.564Z,17.93
2019-03-13T16:24:16.830Z,15.37
2019-03-13T16:25:24.733Z,16.07
2019-03-13T16:26:32.860Z,16.87
2019-03-13T16:27:40.073Z,20.60
2019-03-13T16:28:48.893Z,20.90
2019-03-13T16:29:57.425Z,22.97